PWSweather.com
Personal Weather Stations
Station Observations
ME1989
Sicily, Barcellona Pozzo Di GottoIT

SicilyBarcellona Pozzo Di GottoIT

Lat: 38.1487398, Lon: 15.2113962

Elevation: 131

Station Type: Peet Bros

Latest ConditionsUpdated 9:10:01 PM GMT+01:01 Friday, Jun 24, 2016
Currently Today's Max Today's Min Today's Average
Temperature 71.2°F21.8°C 77.0°F25.0°C 70.9°F21.6°C 73.0°F22.8°C
Dew Point 65.7°F18.7°C 69.5°F20.8°C 65.5°F18.6°C 67.1°F19.5°C
Winds Calm Calm 10.4 mph NNW16.7 kmh NNW - 3.0 mph 4.8 kmh
Wind Gusts 3.5 mph5.6 kmh 13.8 mph22.2 kmh - -
Humidity 83% 87% 75% 82%
Pressure 29.91 in1012.9 mb 30.00 in1015.9 mb 29.88 in1011.9 mb -
Precipitation - 0.12 in3.0 mm - -
Hour Temp Dew Point Humidity Winds Wind Gusts Pressure Precip Precip Rate Daily Precip Total
09:10 PM 71.2°F21.8°C 65.7°F18.7°C 83% Calm Calm 3.5 mph5.6 kmh 29.91 in1012.9 mb - 0.00 in0.0 mm 0.12 in3.0 mm
09:00 PM 71.2°F21.8°C 66.1°F18.9°C 84% 2.3 mph S3.7 kmh S 4.6 mph7.4 kmh 29.91 in1012.9 mb - 0.00 in0.0 mm 0.12 in3.0 mm
08:50 PM 71.1°F21.7°C 66.1°F18.9°C 84% 4.6 mph S7.4 kmh S 4.6 mph7.4 kmh 29.91 in1012.9 mb - 0.00 in0.0 mm 0.12 in3.0 mm
08:40 PM 71.3°F21.8°C 66.5°F19.2°C 85% 1.2 mph S1.9 kmh S 1.2 mph1.9 kmh 29.91 in1012.9 mb - 0.00 in0.0 mm 0.12 in3.0 mm
08:30 PM 71.5°F21.9°C 66.8°F19.3°C 85% 3.5 mph S5.6 kmh S 5.8 mph9.3 kmh 29.91 in1012.9 mb - 0.00 in0.0 mm 0.12 in3.0 mm
08:20 PM 72.0°F22.2°C 67.3°F19.6°C 85% 2.3 mph S3.7 kmh S 4.6 mph7.4 kmh 29.92 in1013.2 mb - 0.00 in0.0 mm 0.12 in3.0 mm
08:10 PM 72.6°F22.6°C 67.8°F19.9°C 85% 3.5 mph S5.6 kmh S 4.6 mph7.4 kmh 29.91 in1012.9 mb - 0.00 in0.0 mm 0.12 in3.0 mm
08:00 PM 73.0°F22.8°C 67.9°F19.9°C 84% 1.2 mph SE1.9 kmh SE -- 29.91 in1012.9 mb - 0.00 in0.0 mm 0.12 in3.0 mm
07:50 PM 73.7°F23.2°C 68.2°F20.1°C 83% 3.5 mph S5.6 kmh S 4.6 mph7.4 kmh 29.91 in1012.9 mb - 0.00 in0.0 mm 0.12 in3.0 mm
07:40 PM 73.9°F23.3°C 68.1°F20.1°C 82% Calm Calm -- 29.91 in1012.9 mb - 0.00 in0.0 mm 0.12 in3.0 mm
07:30 PM 74.0°F23.3°C 68.1°F20.1°C 82% Calm Calm -- 29.90 in1012.5 mb - 0.00 in0.0 mm 0.12 in3.0 mm
07:20 PM 74.1°F23.4°C 68.3°F20.2°C 82% Calm Calm -- 29.89 in1012.2 mb - 0.00 in0.0 mm 0.12 in3.0 mm
07:10 PM 74.2°F23.4°C 68.4°F20.2°C 82% Calm Calm -- 29.89 in1012.2 mb - 0.00 in0.0 mm 0.12 in3.0 mm
07:00 PM 74.4°F23.6°C 68.2°F20.1°C 81% Calm Calm 3.5 mph5.6 kmh 29.89 in1012.2 mb - 0.00 in0.0 mm 0.12 in3.0 mm
06:50 PM 74.2°F23.4°C 68.0°F20.0°C 81% 1.2 mph SSE1.9 kmh SSE 3.5 mph5.6 kmh 29.90 in1012.5 mb - 0.00 in0.0 mm 0.12 in3.0 mm
06:40 PM 74.0°F23.3°C 67.8°F19.9°C 81% 4.6 mph S7.4 kmh S 4.6 mph7.4 kmh 29.90 in1012.5 mb - 0.00 in0.0 mm 0.12 in3.0 mm
06:30 PM 74.2°F23.4°C 68.3°F20.2°C 82% Calm Calm -- 29.91 in1012.9 mb - 0.00 in0.0 mm 0.12 in3.0 mm
06:20 PM 74.1°F23.4°C 68.3°F20.2°C 82% 2.3 mph WSW3.7 kmh WSW 3.5 mph5.6 kmh 29.91 in1012.9 mb - 0.00 in0.0 mm 0.12 in3.0 mm
06:10 PM 73.7°F23.2°C 67.9°F19.9°C 82% 3.5 mph WSW5.6 kmh WSW 5.8 mph9.3 kmh 29.90 in1012.5 mb - 0.00 in0.0 mm 0.12 in3.0 mm
06:00 PM 73.7°F23.2°C 68.2°F20.1°C 83% 3.5 mph WNW5.6 kmh WNW 5.8 mph9.3 kmh 29.90 in1012.5 mb - 0.00 in0.0 mm 0.12 in3.0 mm
05:50 PM 74.0°F23.3°C 68.9°F20.5°C 84% 3.5 mph WNW5.6 kmh WNW 5.8 mph9.3 kmh 29.89 in1012.2 mb - 0.00 in0.0 mm 0.12 in3.0 mm
05:40 PM 73.9°F23.3°C 68.4°F20.2°C 83% 5.8 mph WNW9.3 kmh WNW 6.9 mph11.1 kmh 29.89 in1012.2 mb - 0.00 in0.0 mm 0.12 in3.0 mm
05:30 PM 74.7°F23.7°C 69.5°F20.8°C 84% Calm Calm -- 29.89 in1012.2 mb - 0.00 in0.0 mm 0.12 in3.0 mm
05:20 PM 74.7°F23.7°C 69.5°F20.8°C 84% Calm Calm -- 29.88 in1011.9 mb - 0.00 in0.0 mm 0.12 in3.0 mm
05:10 PM 74.2°F23.4°C 69.4°F20.8°C 85% Calm Calm -- 29.88 in1011.9 mb - 0.00 in0.0 mm 0.12 in3.0 mm
05:00 PM 73.8°F23.2°C 69.3°F20.7°C 86% Calm Calm -- 29.88 in1011.9 mb - 0.00 in0.0 mm 0.12 in3.0 mm
04:50 PM 73.6°F23.1°C 69.1°F20.6°C 86% Calm Calm -- 29.88 in1011.9 mb - 0.01 in0.3 mm 0.12 in3.0 mm
04:40 PM 73.1°F22.8°C 68.6°F20.3°C 86% Calm Calm -- 29.89 in1012.2 mb - 0.00 in0.0 mm 0.11 in2.8 mm
04:30 PM 73.2°F22.9°C 68.8°F20.4°C 86% Calm Calm -- 29.89 in1012.2 mb - 0.00 in0.0 mm 0.11 in2.8 mm
04:20 PM 73.1°F22.8°C 68.7°F20.4°C 86% Calm Calm -- 29.89 in1012.2 mb - 0.00 in0.0 mm 0.11 in2.8 mm
04:10 PM 72.9°F22.7°C 68.5°F20.3°C 86% Calm Calm -- 29.90 in1012.5 mb - 0.00 in0.0 mm 0.11 in2.8 mm
04:00 PM 72.9°F22.7°C 68.8°F20.4°C 87% Calm Calm -- 29.90 in1012.5 mb - 0.00 in0.0 mm 0.11 in2.8 mm
03:50 PM 72.3°F22.4°C 68.2°F20.1°C 87% 4.6 mph WNW7.4 kmh WNW 6.9 mph11.1 kmh 29.90 in1012.5 mb - 0.00 in0.0 mm 0.11 in2.8 mm
03:40 PM 71.7°F22.1°C 67.3°F19.6°C 86% 3.5 mph W5.6 kmh W 4.6 mph7.4 kmh 29.90 in1012.5 mb - 0.00 in0.0 mm 0.11 in2.8 mm
03:30 PM 72.1°F22.3°C 67.7°F19.8°C 86% 3.5 mph WSW5.6 kmh WSW 4.6 mph7.4 kmh 29.91 in1012.9 mb - 0.00 in0.0 mm 0.11 in2.8 mm
03:20 PM 71.8°F22.1°C 67.4°F19.7°C 86% 1.2 mph WNW1.9 kmh WNW 6.9 mph11.1 kmh 29.91 in1012.9 mb - 0.00 in0.0 mm 0.11 in2.8 mm
03:10 PM 72.0°F22.2°C 67.5°F19.7°C 86% Calm Calm -- 29.93 in1013.5 mb - 0.00 in0.0 mm 0.11 in2.8 mm
03:00 PM 72.6°F22.6°C 67.8°F19.9°C 85% 5.8 mph WSW9.3 kmh WSW 6.9 mph11.1 kmh 29.93 in1013.5 mb - 0.10 in2.5 mm 0.11 in2.8 mm
02:50 PM 73.1°F22.8°C 68.3°F20.2°C 85% 6.9 mph SSW11.1 kmh SSW 9.2 mph14.8 kmh 29.95 in1014.2 mb - 0.03 in0.8 mm 0.04 in1.0 mm
02:40 PM 73.3°F22.9°C 68.2°F20.1°C 84% 4.6 mph NW7.4 kmh NW 5.8 mph9.3 kmh 29.93 in1013.5 mb - 0.00 in0.0 mm 0.01 in0.3 mm
02:30 PM 73.6°F23.1°C 68.1°F20.1°C 83% 2.3 mph ENE3.7 kmh ENE 3.5 mph5.6 kmh 29.94 in1013.9 mb - 0.00 in0.0 mm 0.01 in0.3 mm
02:20 PM 73.2°F22.9°C 67.8°F19.9°C 83% 5.8 mph WNW9.3 kmh WNW 6.9 mph11.1 kmh 29.92 in1013.2 mb - 0.01 in0.3 mm 0.01 in0.3 mm
02:10 PM 73.6°F23.1°C 67.8°F19.9°C 82% 2.3 mph WSW3.7 kmh WSW 2.3 mph3.7 kmh 29.92 in1013.2 mb - 0.00 in0.0 mm 0.00 in0.0 mm
02:00 PM 73.6°F23.1°C 67.4°F19.7°C 81% 5.8 mph WNW9.3 kmh WNW 6.9 mph11.1 kmh 29.91 in1012.9 mb - 0.00 in0.0 mm 0.00 in0.0 mm
01:50 PM 74.0°F23.3°C 67.5°F19.7°C 80% 5.8 mph NW9.3 kmh NW 8.1 mph13.0 kmh 29.92 in1013.2 mb - 0.00 in0.0 mm 0.00 in0.0 mm
01:40 PM 74.2°F23.4°C 67.3°F19.6°C 79% 6.9 mph NW11.1 kmh NW 8.1 mph13.0 kmh 29.92 in1013.2 mb - 0.00 in0.0 mm 0.00 in0.0 mm
01:30 PM 75.2°F24.0°C 68.3°F20.2°C 79% 9.2 mph NW14.8 kmh NW 10.4 mph16.7 kmh 29.92 in1013.2 mb - 0.00 in0.0 mm 0.00 in0.0 mm
01:20 PM 76.8°F24.9°C 68.3°F20.2°C 75% 8.1 mph N13.0 kmh N 9.2 mph14.8 kmh 29.92 in1013.2 mb - 0.00 in0.0 mm 0.00 in0.0 mm
01:10 PM 75.8°F24.3°C 68.5°F20.3°C 78% 10.4 mph NW16.7 kmh NW 13.8 mph22.2 kmh 29.92 in1013.2 mb - 0.00 in0.0 mm 0.00 in0.0 mm
01:00 PM 75.9°F24.4°C 68.2°F20.1°C 77% 10.4 mph WNW16.7 kmh WNW 11.5 mph18.5 kmh 29.91 in1012.9 mb - 0.00 in0.0 mm 0.00 in0.0 mm
12:50 PM 77.0°F25.0°C 68.4°F20.2°C 75% 6.9 mph NW11.1 kmh NW 10.4 mph16.7 kmh 29.91 in1012.9 mb - 0.00 in0.0 mm 0.00 in0.0 mm
12:40 PM 75.6°F24.2°C 67.5°F19.7°C 76% 8.1 mph WNW13.0 kmh WNW 10.4 mph16.7 kmh 29.92 in1013.2 mb - 0.00 in0.0 mm 0.00 in0.0 mm
12:30 PM 75.7°F24.3°C 67.2°F19.6°C 75% 8.1 mph NW13.0 kmh NW 9.2 mph14.8 kmh 29.92 in1013.2 mb - 0.00 in0.0 mm 0.00 in0.0 mm
12:20 PM 75.9°F24.4°C 68.2°F20.1°C 77% 6.9 mph WNW11.1 kmh WNW 8.1 mph13.0 kmh 29.92 in1013.2 mb - 0.00 in0.0 mm 0.00 in0.0 mm
12:10 PM 75.5°F24.2°C 68.2°F20.1°C 78% 8.1 mph WNW13.0 kmh WNW 9.2 mph14.8 kmh 29.92 in1013.2 mb - 0.00 in0.0 mm 0.00 in0.0 mm
12:00 PM 75.1°F23.9°C 68.1°F20.1°C 79% 10.4 mph NNW16.7 kmh NNW 13.8 mph22.2 kmh 29.92 in1013.2 mb - 0.00 in0.0 mm 0.00 in0.0 mm
11:50 AM 75.8°F24.3°C 68.5°F20.3°C 78% 9.2 mph NW14.8 kmh NW 12.7 mph20.4 kmh 29.92 in1013.2 mb - 0.00 in0.0 mm 0.00 in0.0 mm
11:40 AM 75.8°F24.3°C 67.6°F19.8°C 76% 10.4 mph NNW16.7 kmh NNW 11.5 mph18.5 kmh 29.93 in1013.5 mb - 0.00 in0.0 mm 0.00 in0.0 mm
11:30 AM 75.6°F24.2°C 67.5°F19.7°C 76% 9.2 mph NW14.8 kmh NW 11.5 mph18.5 kmh 29.93 in1013.5 mb - 0.00 in0.0 mm 0.00 in0.0 mm
11:20 AM 75.8°F24.3°C 67.3°F19.6°C 75% 9.2 mph N14.8 kmh N 11.5 mph18.5 kmh 29.93 in1013.5 mb - 0.00 in0.0 mm 0.00 in0.0 mm
11:10 AM 75.7°F24.3°C 67.6°F19.8°C 76% 6.9 mph NW11.1 kmh NW 9.2 mph14.8 kmh 29.92 in1013.2 mb - 0.00 in0.0 mm 0.00 in0.0 mm
11:00 AM 75.2°F24.0°C 67.5°F19.7°C 77% 8.1 mph WNW13.0 kmh WNW 10.4 mph16.7 kmh 29.92 in1013.2 mb - 0.00 in0.0 mm 0.00 in0.0 mm
10:50 AM 75.6°F24.2°C 67.5°F19.7°C 76% 5.8 mph N9.3 kmh N 8.1 mph13.0 kmh 29.92 in1013.2 mb - 0.00 in0.0 mm 0.00 in0.0 mm
10:40 AM 75.4°F24.1°C 66.9°F19.4°C 75% 6.9 mph NW11.1 kmh NW 10.4 mph16.7 kmh 29.92 in1013.2 mb - 0.00 in0.0 mm 0.00 in0.0 mm
10:30 AM 74.9°F23.8°C 66.8°F19.3°C 76% 6.9 mph NW11.1 kmh NW 9.2 mph14.8 kmh 29.93 in1013.5 mb - 0.00 in0.0 mm 0.00 in0.0 mm
10:20 AM 74.9°F23.8°C 66.9°F19.4°C 76% 8.1 mph NW13.0 kmh NW 10.4 mph16.7 kmh 29.93 in1013.5 mb - 0.00 in0.0 mm 0.00 in0.0 mm
10:10 AM 74.9°F23.8°C 66.4°F19.1°C 75% 8.1 mph NW13.0 kmh NW 9.2 mph14.8 kmh 29.93 in1013.5 mb - 0.00 in0.0 mm 0.00 in0.0 mm
10:00 AM 74.2°F23.4°C 66.2°F19.0°C 76% 6.9 mph W11.1 kmh W 8.1 mph13.0 kmh 29.93 in1013.5 mb - 0.00 in0.0 mm 0.00 in0.0 mm
09:50 AM 74.1°F23.4°C 66.4°F19.1°C 77% 5.8 mph W9.3 kmh W 6.9 mph11.1 kmh 29.94 in1013.9 mb - 0.00 in0.0 mm 0.00 in0.0 mm
09:40 AM 73.9°F23.3°C 66.6°F19.2°C 78% 6.9 mph WNW11.1 kmh WNW 8.1 mph13.0 kmh 29.94 in1013.9 mb - 0.00 in0.0 mm 0.00 in0.0 mm
09:30 AM 74.3°F23.5°C 67.0°F19.4°C 78% 5.8 mph W9.3 kmh W 9.2 mph14.8 kmh 29.94 in1013.9 mb - 0.00 in0.0 mm 0.00 in0.0 mm
09:20 AM 73.6°F23.1°C 66.3°F19.1°C 78% 5.8 mph W9.3 kmh W 5.8 mph9.3 kmh 29.95 in1014.2 mb - 0.00 in0.0 mm 0.00 in0.0 mm
09:10 AM 73.6°F23.1°C 66.6°F19.2°C 79% 3.5 mph NW5.6 kmh NW 4.6 mph7.4 kmh 29.94 in1013.9 mb - 0.00 in0.0 mm 0.00 in0.0 mm
09:00 AM 73.5°F23.1°C 66.6°F19.2°C 79% 5.8 mph W9.3 kmh W 5.8 mph9.3 kmh 29.95 in1014.2 mb - 0.00 in0.0 mm 0.00 in0.0 mm
08:50 AM 73.6°F23.1°C 66.3°F19.1°C 78% 5.8 mph WNW9.3 kmh WNW 6.9 mph11.1 kmh 29.95 in1014.2 mb - 0.00 in0.0 mm 0.00 in0.0 mm
08:40 AM 73.8°F23.2°C 66.1°F18.9°C 77% 3.5 mph W5.6 kmh W 9.2 mph14.8 kmh 29.94 in1013.9 mb - 0.00 in0.0 mm 0.00 in0.0 mm
08:30 AM 73.6°F23.1°C 66.0°F18.9°C 77% 4.6 mph WSW7.4 kmh WSW 5.8 mph9.3 kmh 29.94 in1013.9 mb - 0.00 in0.0 mm 0.00 in0.0 mm
08:20 AM 72.8°F22.7°C 66.6°F19.2°C 81% 5.8 mph W9.3 kmh W 8.1 mph13.0 kmh 29.94 in1013.9 mb - 0.00 in0.0 mm 0.00 in0.0 mm
08:10 AM 72.4°F22.4°C 67.0°F19.4°C 83% Calm Calm -- 29.95 in1014.2 mb - 0.00 in0.0 mm 0.00 in0.0 mm
08:00 AM 72.3°F22.4°C 66.9°F19.4°C 83% Calm Calm -- 29.95 in1014.2 mb - 0.00 in0.0 mm 0.00 in0.0 mm
07:50 AM 72.2°F22.3°C 66.7°F19.3°C 83% Calm Calm -- 29.96 in1014.6 mb - 0.00 in0.0 mm 0.00 in0.0 mm
07:40 AM 72.4°F22.4°C 66.9°F19.4°C 83% Calm Calm -- 29.96 in1014.6 mb - 0.00 in0.0 mm 0.00 in0.0 mm
07:30 AM 72.5°F22.5°C 67.0°F19.4°C 83% Calm Calm -- 29.96 in1014.6 mb - 0.00 in0.0 mm 0.00 in0.0 mm
07:20 AM 72.4°F22.4°C 67.0°F19.4°C 83% Calm Calm -- 29.96 in1014.6 mb - 0.00 in0.0 mm 0.00 in0.0 mm
07:10 AM 72.1°F22.3°C 66.7°F19.3°C 83% Calm Calm -- 29.96 in1014.6 mb - 0.00 in0.0 mm 0.00 in0.0 mm
07:00 AM 71.9°F22.2°C 66.4°F19.1°C 83% Calm Calm -- 29.95 in1014.2 mb - 0.00 in0.0 mm 0.00 in0.0 mm
06:50 AM 71.7°F22.1°C 66.6°F19.2°C 84% Calm Calm -- 29.95 in1014.2 mb - 0.00 in0.0 mm 0.00 in0.0 mm
06:40 AM 71.4°F21.9°C 66.3°F19.1°C 84% Calm Calm -- 29.95 in1014.2 mb - 0.00 in0.0 mm 0.00 in0.0 mm
06:30 AM 71.2°F21.8°C 66.1°F18.9°C 84% Calm Calm -- 29.95 in1014.2 mb - 0.00 in0.0 mm 0.00 in0.0 mm
06:20 AM 71.0°F21.7°C 66.2°F19.0°C 85% Calm Calm -- 29.95 in1014.2 mb - 0.00 in0.0 mm 0.00 in0.0 mm
06:10 AM 70.9°F21.6°C 66.1°F18.9°C 85% 1.2 mph S1.9 kmh S 3.5 mph5.6 kmh 29.95 in1014.2 mb - 0.00 in0.0 mm 0.00 in0.0 mm
06:00 AM 70.9°F21.6°C 65.9°F18.8°C 84% Calm Calm -- 29.96 in1014.6 mb - 0.00 in0.0 mm 0.00 in0.0 mm
05:50 AM 70.9°F21.6°C 66.2°F19.0°C 85% 1.2 mph SSW1.9 kmh SSW 3.5 mph5.6 kmh 29.96 in1014.6 mb - 0.00 in0.0 mm 0.00 in0.0 mm
05:40 AM 71.1°F21.7°C 66.0°F18.9°C 84% Calm Calm -- 29.97 in1014.9 mb - 0.00 in0.0 mm 0.00 in0.0 mm
05:30 AM 71.1°F21.7°C 66.0°F18.9°C 84% Calm Calm -- 29.97 in1014.9 mb - 0.00 in0.0 mm 0.00 in0.0 mm
05:20 AM 71.1°F21.7°C 66.0°F18.9°C 84% Calm Calm -- 29.96 in1014.6 mb - 0.00 in0.0 mm 0.00 in0.0 mm
05:10 AM 71.1°F21.7°C 66.0°F18.9°C 84% Calm Calm -- 29.96 in1014.6 mb - 0.00 in0.0 mm 0.00 in0.0 mm
05:00 AM 71.1°F21.7°C 66.1°F18.9°C 84% Calm Calm -- 29.96 in1014.6 mb - 0.00 in0.0 mm 0.00 in0.0 mm
04:50 AM 71.2°F21.8°C 66.1°F18.9°C 84% 1.2 mph SW1.9 kmh SW -- 29.96 in1014.6 mb - 0.00 in0.0 mm 0.00 in0.0 mm
04:40 AM 71.4°F21.9°C 66.3°F19.1°C 84% Calm Calm -- 29.96 in1014.6 mb - 0.00 in0.0 mm 0.00 in0.0 mm
04:30 AM 71.3°F21.8°C 65.8°F18.8°C 83% Calm Calm -- 29.96 in1014.6 mb - 0.00 in0.0 mm 0.00 in0.0 mm
04:20 AM 71.4°F21.9°C 66.0°F18.9°C 83% Calm Calm -- 29.96 in1014.6 mb - 0.00 in0.0 mm 0.00 in0.0 mm
04:10 AM 71.5°F21.9°C 66.1°F18.9°C 83% Calm Calm -- 29.96 in1014.6 mb - 0.00 in0.0 mm 0.00 in0.0 mm
04:00 AM 71.5°F21.9°C 65.7°F18.7°C 82% Calm Calm -- 29.96 in1014.6 mb - 0.00 in0.0 mm 0.00 in0.0 mm
03:50 AM 71.5°F21.9°C 65.7°F18.7°C 82% Calm Calm -- 29.96 in1014.6 mb - 0.00 in0.0 mm 0.00 in0.0 mm
03:40 AM 71.5°F21.9°C 65.7°F18.7°C 82% Calm Calm -- 29.95 in1014.2 mb - 0.00 in0.0 mm 0.00 in0.0 mm
03:30 AM 71.4°F21.9°C 65.6°F18.7°C 82% Calm Calm -- 29.95 in1014.2 mb - 0.00 in0.0 mm 0.00 in0.0 mm
03:20 AM 71.4°F21.9°C 65.6°F18.7°C 82% Calm Calm -- 29.95 in1014.2 mb - 0.00 in0.0 mm 0.00 in0.0 mm
03:10 AM 71.4°F21.9°C 65.6°F18.7°C 82% Calm Calm -- 29.95 in1014.2 mb - 0.00 in0.0 mm 0.00 in0.0 mm
03:00 AM 71.4°F21.9°C 65.7°F18.7°C 82% Calm Calm -- 29.95 in1014.2 mb - 0.00 in0.0 mm 0.00 in0.0 mm
02:50 AM 71.7°F22.1°C 65.5°F18.6°C 81% 2.3 mph SSW3.7 kmh SSW 2.3 mph3.7 kmh 29.96 in1014.6 mb - 0.00 in0.0 mm 0.00 in0.0 mm
02:40 AM 71.5°F21.9°C 65.7°F18.7°C 82% 1.2 mph E1.9 kmh E 2.3 mph3.7 kmh 29.97 in1014.9 mb - 0.00 in0.0 mm 0.00 in0.0 mm
02:30 AM 71.4°F21.9°C 65.6°F18.7°C 82% 2.3 mph E3.7 kmh E 3.5 mph5.6 kmh 29.97 in1014.9 mb - 0.00 in0.0 mm 0.00 in0.0 mm
02:20 AM 71.3°F21.8°C 65.5°F18.6°C 82% 2.3 mph E3.7 kmh E 3.5 mph5.6 kmh 29.97 in1014.9 mb - 0.00 in0.0 mm 0.00 in0.0 mm
02:10 AM 71.5°F21.9°C 66.1°F18.9°C 83% Calm Calm -- 29.96 in1014.6 mb - 0.00 in0.0 mm 0.00 in0.0 mm
02:00 AM 71.6°F22.0°C 66.2°F19.0°C 83% 2.3 mph ENE3.7 kmh ENE 4.6 mph7.4 kmh 29.96 in1014.6 mb - 0.00 in0.0 mm 0.00 in0.0 mm
01:50 AM 71.7°F22.1°C 66.3°F19.1°C 83% 2.3 mph E3.7 kmh E 4.6 mph7.4 kmh 29.96 in1014.6 mb - 0.00 in0.0 mm 0.00 in0.0 mm
01:40 AM 71.6°F22.0°C 66.2°F19.0°C 83% 3.5 mph E5.6 kmh E 3.5 mph5.6 kmh 29.96 in1014.6 mb - 0.00 in0.0 mm 0.00 in0.0 mm
01:30 AM 71.6°F22.0°C 66.5°F19.2°C 84% 3.5 mph E5.6 kmh E 5.8 mph9.3 kmh 29.97 in1014.9 mb - 0.00 in0.0 mm 0.00 in0.0 mm
01:20 AM 71.6°F22.0°C 66.5°F19.2°C 84% 3.5 mph ESE5.6 kmh ESE 5.8 mph9.3 kmh 29.97 in1014.9 mb - 0.00 in0.0 mm 0.00 in0.0 mm
01:10 AM 71.6°F22.0°C 66.5°F19.2°C 84% 4.6 mph SE7.4 kmh SE 5.8 mph9.3 kmh 29.98 in1015.2 mb - 0.00 in0.0 mm 0.00 in0.0 mm
01:00 AM 71.6°F22.0°C 66.5°F19.2°C 84% 4.6 mph SE7.4 kmh SE 5.8 mph9.3 kmh 29.98 in1015.2 mb - 0.00 in0.0 mm 0.00 in0.0 mm
12:50 AM 71.5°F21.9°C 66.1°F18.9°C 83% 3.5 mph SE5.6 kmh SE 4.6 mph7.4 kmh 29.99 in1015.6 mb - 0.00 in0.0 mm 0.00 in0.0 mm
12:40 AM 71.9°F22.2°C 66.4°F19.1°C 83% Calm Calm -- 29.99 in1015.6 mb - 0.00 in0.0 mm 0.00 in0.0 mm
12:30 AM 72.2°F22.3°C 67.1°F19.5°C 84% Calm Calm -- 29.99 in1015.6 mb - 0.00 in0.0 mm 0.00 in0.0 mm
12:20 AM 72.2°F22.3°C 67.1°F19.5°C 84% Calm Calm -- 30.00 in1015.9 mb - 0.00 in0.0 mm 0.00 in0.0 mm
12:10 AM 72.2°F22.3°C 67.1°F19.5°C 84% Calm Calm -- 30.00 in1015.9 mb - 0.00 in0.0 mm 0.00 in0.0 mm
12:00 AM 72.0°F22.2°C 66.9°F19.4°C 84% 1.2 mph NW1.9 kmh NW 1.2 mph1.9 kmh 30.00 in1015.9 mb - 0.00 in0.0 mm 0.00 in0.0 mm